Time,TemperatureF,DewpointF,PressureIn,WindDirection,WindDirectionDegrees,WindSpeedMPH,WindSpeedGustMPH,Humidity,HourlyPrecipIn,Conditions,Clouds,dailyrainin,SoftwareType,DateUTC
2013-06-03 00:02:00,57.7,54.5,29.98,WSW,253,0.0,0.0,89,0.00,,,0.00,VWS V13.01,2013-06-03 05:02:00,
2013-06-03 00:07:00,57.5,54.6,29.98,WSW,253,0.0,0.0,90,0.00,,,0.00,VWS V13.01,2013-06-03 05:07:00,
2013-06-03 00:12:00,57.4,54.8,29.98,WSW,253,0.0,0.0,91,0.00,,,0.00,VWS V13.01,2013-06-03 05:12:00,
2013-06-03 00:17:00,57.2,54.9,29.95,WSW,253,0.0,0.0,92,0.00,,,0.00,VWS V13.01,2013-06-03 05:17:00,
2013-06-03 00:22:00,56.8,54.5,29.95,WSW,253,0.0,0.0,92,0.00,,,0.00,VWS V13.01,2013-06-03 05:22:00,
2013-06-03 00:27:00,56.5,54.5,29.95,WSW,253,0.0,0.0,93,0.00,,,0.00,VWS V13.01,2013-06-03 05:27:00,
2013-06-03 00:32:00,56.1,54.1,29.95,WSW,253,0.0,0.0,93,0.00,,,0.00,VWS V13.01,2013-06-03 05:32:00,
2013-06-03 00:37:00,56.1,54.1,29.95,WSW,253,0.0,0.0,93,0.00,,,0.00,VWS V13.01,2013-06-03 05:37:00,
2013-06-03 00:42:00,56.1,54.7,29.95,WSW,253,0.0,0.0,95,0.00,,,0.00,VWS V13.01,2013-06-03 05:42:00,
2013-06-03 00:47:00,55.9,54.5,29.98,WSW,253,0.0,0.0,95,0.00,,,0.00,VWS V13.01,2013-06-03 05:47:00,
2013-06-03 00:52:00,55.7,54.0,29.98,WSW,253,0.0,0.0,94,0.00,,,0.00,VWS V13.01,2013-06-03 05:52:00,
2013-06-03 00:57:00,55.7,54.0,29.98,WSW,253,0.0,0.0,94,0.00,,,0.00,VWS V13.01,2013-06-03 05:57:00,
2013-06-03 01:02:00,55.7,54.9,29.98,WSW,253,0.0,0.0,97,0.00,,,0.00,VWS V13.01,2013-06-03 06:02:00,
2013-06-03 01:07:00,55.6,54.7,29.98,WSW,253,0.0,0.0,97,0.00,,,0.00,VWS V13.01,2013-06-03 06:07:00,
2013-06-03 01:12:00,55.4,54.5,29.98,WSW,253,0.0,0.0,97,0.00,,,0.00,VWS V13.01,2013-06-03 06:12:00,
2013-06-03 01:17:00,55.2,54.4,29.98,WSW,253,0.0,0.0,97,0.00,,,0.00,VWS V13.01,2013-06-03 06:17:00,
2013-06-03 01:22:00,55.0,54.8,29.98,WSW,253,0.0,0.0,99,0.00,,,0.00,VWS V13.01,2013-06-03 06:22:00,
2013-06-03 01:27:00,54.8,54.6,29.98,WSW,253,0.0,0.0,99,0.00,,,0.00,VWS V13.01,2013-06-03 06:27:00,
2013-06-03 01:32:00,54.7,54.4,29.98,WSW,253,0.0,0.0,99,0.00,,,0.00,VWS V13.01,2013-06-03 06:32:00,
2013-06-03 01:37:00,54.5,53.9,29.98,WSW,253,0.0,0.0,98,0.00,,,0.00,VWS V13.01,2013-06-03 06:37:00,
2013-06-03 01:42:00,54.5,53.9,29.98,WSW,253,0.0,0.0,98,0.00,,,0.00,VWS V13.01,2013-06-03 06:42:00,
2013-06-03 01:47:00,54.5,54.2,29.98,WSW,253,0.0,0.0,99,0.00,,,0.00,VWS V13.01,2013-06-03 06:47:00,
2013-06-03 01:52:00,54.3,54.0,29.98,WSW,253,0.0,0.0,99,0.00,,,0.00,VWS V13.01,2013-06-03 06:52:00,
2013-06-03 01:57:00,54.3,54.0,29.98,WSW,253,0.0,0.0,99,0.00,,,0.00,VWS V13.01,2013-06-03 06:57:00,
2013-06-03 02:02:00,54.3,54.0,29.98,WSW,253,0.0,0.0,99,0.00,,,0.00,VWS V13.01,2013-06-03 07:02:00,
2013-06-03 02:07:00,54.3,54.3,29.98,WSW,253,0.0,0.0,100,0.00,,,0.00,VWS V13.01,2013-06-03 07:07:00,
2013-06-03 02:12:00,54.1,54.1,29.98,NNE,17,0.0,0.0,100,0.00,,,0.00,VWS V13.01,2013-06-03 07:12:00,
2013-06-03 02:17:00,53.9,53.9,29.98,NNE,30,0.0,0.0,100,0.00,,,0.00,VWS V13.01,2013-06-03 07:17:00,
2013-06-03 02:22:00,53.8,53.8,29.98,NNE,30,0.0,0.0,100,0.00,,,0.00,VWS V13.01,2013-06-03 07:22:00,
2013-06-03 02:27:00,53.6,53.6,29.98,NNE,30,0.0,0.0,100,0.00,,,0.00,VWS V13.01,2013-06-03 07:27:00,
2013-06-03 02:32:00,53.4,53.4,29.98,NNE,30,0.0,0.0,100,0.00,,,0.00,VWS V13.01,2013-06-03 07:32:00,
2013-06-03 02:37:00,53.2,53.2,29.98,NNE,30,0.0,0.0,100,0.00,,,0.00,VWS V13.01,2013-06-03 07:37:00,
2013-06-03 02:42:00,53.2,53.2,29.98,NNE,30,0.0,0.0,100,0.00,,,0.00,VWS V13.01,2013-06-03 07:42:00,
2013-06-03 02:47:00,53.2,53.2,29.98,NNE,30,0.0,0.0,100,0.00,,,0.00,VWS V13.01,2013-06-03 07:47:00,
2013-06-03 02:52:00,53.0,53.0,29.98,NNE,30,0.0,0.0,100,0.00,,,0.00,VWS V13.01,2013-06-03 07:52:00,
2013-06-03 02:57:00,52.9,52.9,29.98,NNE,30,0.0,0.0,100,0.00,,,0.00,VWS V13.01,2013-06-03 07:57:00,
2013-06-03 03:02:00,52.9,52.9,29.98,NNE,30,0.0,0.0,100,0.00,,,0.00,VWS V13.01,2013-06-03 08:02:00,
2013-06-03 03:07:00,52.7,52.7,29.98,NNE,30,0.0,0.0,100,0.00,,,0.00,VWS V13.01,2013-06-03 08:07:00,
2013-06-03 03:12:00,52.7,52.7,29.98,NNE,30,0.0,0.0,100,0.00,,,0.00,VWS V13.01,2013-06-03 08:12:00,
2013-06-03 03:17:00,52.7,52.7,29.98,NNE,30,0.0,0.0,100,0.00,,,0.00,VWS V13.01,2013-06-03 08:17:00,
2013-06-03 03:22:00,52.7,52.7,29.98,NNE,30,0.0,0.0,100,0.00,,,0.00,VWS V13.01,2013-06-03 08:22:00,
2013-06-03 03:27:00,52.5,52.5,29.98,NNE,30,0.0,0.0,100,0.00,,,0.00,VWS V13.01,2013-06-03 08:27:00,
2013-06-03 03:32:00,52.5,52.5,29.98,NNE,30,0.0,0.0,100,0.00,,,0.00,VWS V13.01,2013-06-03 08:32:00,
2013-06-03 03:37:00,52.3,52.3,29.98,NNE,30,0.0,0.0,100,0.00,,,0.00,VWS V13.01,2013-06-03 08:37:00,
2013-06-03 03:42:00,52.3,52.3,29.98,NNE,30,0.0,0.0,100,0.00,,,0.00,VWS V13.01,2013-06-03 08:42:00,
2013-06-03 03:47:00,52.3,52.3,29.98,NNE,30,0.0,0.0,100,0.00,,,0.00,VWS V13.01,2013-06-03 08:47:00,
2013-06-03 03:52:00,52.1,52.1,29.98,NNE,30,0.0,0.0,100,0.00,,,0.00,VWS V13.01,2013-06-03 08:52:00,
2013-06-03 03:57:00,52.1,52.1,29.98,NNE,30,0.0,0.0,100,0.00,,,0.00,VWS V13.01,2013-06-03 08:57:00,
2013-06-03 04:02:00,52.1,52.1,29.98,NNE,30,0.0,0.0,100,0.00,,,0.00,VWS V13.01,2013-06-03 09:02:00,
2013-06-03 04:07:00,52.1,52.1,29.98,NNE,30,0.0,0.0,100,0.00,,,0.00,VWS V13.01,2013-06-03 09:07:00,
2013-06-03 04:12:00,52.1,52.1,29.98,NNE,30,0.0,0.0,100,0.00,,,0.00,VWS V13.01,2013-06-03 09:12:00,
2013-06-03 04:17:00,52.0,52.0,30.01,NNE,30,0.0,0.0,100,0.00,,,0.00,VWS V13.01,2013-06-03 09:17:00,
2013-06-03 04:22:00,52.0,52.0,30.01,NNE,30,0.0,0.0,100,0.00,,,0.00,VWS V13.01,2013-06-03 09:22:00,
2013-06-03 04:27:00,52.0,52.0,30.01,NNE,30,0.0,0.0,100,0.00,,,0.00,VWS V13.01,2013-06-03 09:27:00,
2013-06-03 04:32:00,52.0,52.0,30.01,NNE,30,0.0,0.0,100,0.00,,,0.00,VWS V13.01,2013-06-03 09:32:00,
2013-06-03 04:37:00,52.0,52.0,30.01,NNE,30,0.0,0.0,100,0.00,,,0.00,VWS V13.01,2013-06-03 09:37:00,
2013-06-03 04:42:00,51.8,51.8,30.01,NNE,30,0.0,0.0,100,0.00,,,0.00,VWS V13.01,2013-06-03 09:42:00,
2013-06-03 04:47:00,51.6,51.6,30.01,NNE,30,0.0,0.0,100,0.00,,,0.00,VWS V13.01,2013-06-03 09:47:00,
2013-06-03 04:52:00,51.6,51.6,30.01,NNE,30,0.0,0.0,100,0.00,,,0.00,VWS V13.01,2013-06-03 09:52:00,
2013-06-03 04:57:00,51.6,51.6,30.01,NNE,30,0.0,0.0,100,0.00,,,0.00,VWS V13.01,2013-06-03 09:57:00,
2013-06-03 05:02:00,51.6,51.6,30.01,NNE,30,0.0,0.0,100,0.00,,,0.00,VWS V13.01,2013-06-03 10:02:00,
2013-06-03 05:07:00,51.8,51.8,30.01,NNE,30,0.0,0.0,100,0.00,,,0.00,VWS V13.01,2013-06-03 10:07:00,
2013-06-03 05:12:00,51.8,51.8,30.01,NNE,30,0.0,0.0,100,0.00,,,0.00,VWS V13.01,2013-06-03 10:12:00,
2013-06-03 05:17:00,52.0,52.0,30.01,NNE,30,0.0,0.0,100,0.00,,,0.00,VWS V13.01,2013-06-03 10:17:00,
2013-06-03 05:22:00,52.1,52.1,30.01,NNE,30,0.0,0.0,100,0.00,,,0.00,VWS V13.01,2013-06-03 10:22:00,
2013-06-03 05:27:00,52.3,52.3,30.01,NNE,30,0.0,0.0,100,0.00,,,0.00,VWS V13.01,2013-06-03 10:27:00,
2013-06-03 05:32:00,52.3,52.3,30.01,NNE,30,0.0,0.0,100,0.00,,,0.00,VWS V13.01,2013-06-03 10:32:00,
2013-06-03 05:37:00,52.3,52.3,30.01,NNE,30,0.0,0.0,100,0.00,,,0.00,VWS V13.01,2013-06-03 10:37:00,
2013-06-03 05:42:00,52.3,52.3,30.01,NNE,30,0.0,0.0,100,0.00,,,0.00,VWS V13.01,2013-06-03 10:42:00,
2013-06-03 05:47:00,52.3,52.3,30.01,NNE,30,0.0,0.0,100,0.00,,,0.00,VWS V13.01,2013-06-03 10:47:00,
2013-06-03 05:52:00,52.1,52.1,30.01,NNE,30,0.0,0.0,100,0.00,,,0.00,VWS V13.01,2013-06-03 10:52:00,
2013-06-03 05:57:00,52.1,52.1,30.01,NNE,30,0.0,0.0,100,0.00,,,0.00,VWS V13.01,2013-06-03 10:57:00,
2013-06-03 06:02:00,52.1,52.1,30.01,NNE,30,0.0,0.0,100,0.00,,,0.00,VWS V13.01,2013-06-03 11:02:00,
2013-06-03 06:07:00,52.1,52.1,30.01,NNE,30,0.0,0.0,100,0.00,,,0.00,VWS V13.01,2013-06-03 11:07:00,
2013-06-03 06:12:00,52.0,52.0,30.01,NNE,30,0.0,0.0,100,0.00,,,0.00,VWS V13.01,2013-06-03 11:12:00,
2013-06-03 06:17:00,51.8,51.8,30.01,NNE,30,0.0,0.0,100,0.00,,,0.00,VWS V13.01,2013-06-03 11:17:00,
2013-06-03 06:22:00,51.8,51.8,30.01,NNE,30,0.0,0.0,100,0.00,,,0.00,VWS V13.01,2013-06-03 11:22:00,
2013-06-03 06:27:00,51.8,51.8,30.01,NNE,30,0.0,0.0,100,0.00,,,0.00,VWS V13.01,2013-06-03 11:27:00,
2013-06-03 06:32:00,51.8,51.8,30.01,NNE,30,0.0,0.0,100,0.00,,,0.00,VWS V13.01,2013-06-03 11:32:00,
2013-06-03 06:37:00,51.8,51.8,30.01,NNE,30,0.0,0.0,100,0.00,,,0.00,VWS V13.01,2013-06-03 11:37:00,
2013-06-03 06:42:00,51.8,51.8,30.01,NNE,30,0.0,0.0,100,0.00,,,0.00,VWS V13.01,2013-06-03 11:42:00,
2013-06-03 06:47:00,52.0,52.0,30.01,NNE,30,0.0,0.0,100,0.00,,,0.00,VWS V13.01,2013-06-03 11:47:00,
2013-06-03 06:52:00,52.1,52.1,30.01,NNE,30,0.0,0.0,100,0.00,,,0.00,VWS V13.01,2013-06-03 11:52:00,
2013-06-03 06:57:00,52.5,52.5,30.01,NNE,30,0.0,0.0,100,0.00,,,0.00,VWS V13.01,2013-06-03 11:57:00,
2013-06-03 07:02:00,53.0,53.0,30.01,NNE,30,0.0,0.0,100,0.00,,,0.00,VWS V13.01,2013-06-03 12:02:00,
2013-06-03 07:07:00,53.9,53.9,30.01,NNE,30,0.0,0.0,100,0.00,,,0.00,VWS V13.01,2013-06-03 12:07:00,
2013-06-03 07:12:00,54.1,54.1,30.01,NNE,30,0.0,0.0,100,0.00,,,0.00,VWS V13.01,2013-06-03 12:12:00,
2013-06-03 07:17:00,54.5,54.5,30.01,NNE,30,0.0,0.0,100,0.00,,,0.00,VWS V13.01,2013-06-03 12:17:00,
2013-06-03 07:22:00,54.7,54.7,30.01,NNE,13,0.0,0.0,100,0.00,,,0.00,VWS V13.01,2013-06-03 12:22:00,
2013-06-03 07:27:00,54.8,54.8,30.01,North,11,0.0,0.0,100,0.00,,,0.00,VWS V13.01,2013-06-03 12:27:00,
2013-06-03 07:32:00,55.6,55.6,30.01,East,92,0.0,0.0,100,0.00,,,0.00,VWS V13.01,2013-06-03 12:32:00,
2013-06-03 07:37:00,56.1,56.1,30.01,ENE,58,0.0,0.0,100,0.00,,,0.00,VWS V13.01,2013-06-03 12:37:00,
2013-06-03 07:42:00,56.5,56.5,30.01,NNE,25,0.0,0.0,100,0.00,,,0.00,VWS V13.01,2013-06-03 12:42:00,
2013-06-03 07:47:00,57.5,57.3,29.98,NNE,24,0.0,0.0,99,0.00,,,0.00,VWS V13.01,2013-06-03 12:47:00,
2013-06-03 07:52:00,58.4,58.2,29.98,NNE,20,0.0,0.0,99,0.00,,,0.00,VWS V13.01,2013-06-03 12:52:00,
2013-06-03 07:57:00,58.6,57.5,29.98,East,98,2.2,3.1,96,0.00,,,0.00,VWS V13.01,2013-06-03 12:57:00,
2013-06-03 08:02:00,58.8,57.1,30.01,ESE,107,0.0,0.0,94,0.00,,,0.00,VWS V13.01,2013-06-03 13:02:00,
2013-06-03 08:07:00,59.0,56.7,30.01,ESE,107,3.1,3.1,92,0.00,,,0.00,VWS V13.01,2013-06-03 13:07:00,
2013-06-03 08:12:00,59.3,56.4,30.01,SSE,151,2.7,2.7,90,0.00,,,0.00,VWS V13.01,2013-06-03 13:12:00,
2013-06-03 08:17:00,59.2,55.0,30.01,ESE,106,3.1,3.6,86,0.00,,,0.00,VWS V13.01,2013-06-03 13:17:00,
2013-06-03 08:22:00,59.5,54.7,30.01,SE,131,3.6,3.6,84,0.00,,,0.00,VWS V13.01,2013-06-03 13:22:00,
2013-06-03 08:27:00,59.9,54.0,30.01,SSE,160,0.0,0.0,81,0.00,,,0.00,VWS V13.01,2013-06-03 13:27:00,
2013-06-03 08:32:00,60.1,54.2,30.01,SE,129,4.0,4.0,81,0.00,,,0.00,VWS V13.01,2013-06-03 13:32:00,
2013-06-03 08:37:00,60.2,53.4,30.01,East,96,3.6,4.0,78,0.00,,,0.00,VWS V13.01,2013-06-03 13:37:00,
2013-06-03 08:42:00,60.8,53.9,30.01,East,101,2.2,3.6,78,0.00,,,0.00,VWS V13.01,2013-06-03 13:42:00,
2013-06-03 08:47:00,61.5,53.2,30.01,ENE,74,4.0,6.3,74,0.00,,,0.00,VWS V13.01,2013-06-03 13:47:00,
2013-06-03 08:52:00,62.0,52.9,30.01,NNE,25,2.2,3.1,72,0.00,,,0.00,VWS V13.01,2013-06-03 13:52:00,
2013-06-03 08:57:00,62.8,51.7,30.01,NNE,20,3.6,4.0,67,0.00,,,0.00,VWS V13.01,2013-06-03 13:57:00,
2013-06-03 09:02:00,63.1,52.4,30.01,ESE,122,0.0,0.0,68,0.00,,,0.00,VWS V13.01,2013-06-03 14:02:00,
2013-06-03 09:07:00,63.7,52.1,30.01,SE,132,3.6,5.4,66,0.00,,,0.00,VWS V13.01,2013-06-03 14:07:00,
2013-06-03 09:12:00,63.7,51.3,30.01,East,95,4.0,5.8,64,0.00,,,0.00,VWS V13.01,2013-06-03 14:12:00,
2013-06-03 09:17:00,64.0,52.5,30.01,ESE,102,3.6,4.5,66,0.00,,,0.00,VWS V13.01,2013-06-03 14:17:00,
2013-06-03 09:22:00,64.6,51.7,30.01,East,79,3.1,4.0,63,0.00,,,0.00,VWS V13.01,2013-06-03 14:22:00,
2013-06-03 09:27:00,65.1,51.8,30.01,NNE,24,3.1,4.0,62,0.00,,,0.00,VWS V13.01,2013-06-03 14:27:00,
2013-06-03 09:32:00,65.5,52.5,30.01,ESE,112,3.1,3.1,63,0.00,,,0.00,VWS V13.01,2013-06-03 14:32:00,
2013-06-03 09:37:00,65.6,52.3,30.01,NNE,25,2.7,3.6,62,0.00,,,0.00,VWS V13.01,2013-06-03 14:37:00,
2013-06-03 09:42:00,65.8,51.6,30.01,East,81,2.7,4.0,60,0.00,,,0.00,VWS V13.01,2013-06-03 14:42:00,
2013-06-03 09:47:00,65.6,52.7,30.01,East,89,3.6,3.6,63,0.00,,,0.00,VWS V13.01,2013-06-03 14:47:00,
2013-06-03 09:52:00,66.4,52.1,30.01,NNE,12,0.0,0.0,60,0.00,,,0.00,VWS V13.01,2013-06-03 14:52:00,
2013-06-03 09:57:00,67.1,53.2,30.01,East,94,3.1,3.1,61,0.00,,,0.00,VWS V13.01,2013-06-03 14:57:00,
2013-06-03 10:02:00,66.9,53.5,30.01,SSE,160,3.1,3.6,62,0.00,,,0.00,VWS V13.01,2013-06-03 15:02:00,
2013-06-03 10:07:00,66.7,52.9,30.01,SE,124,2.2,4.0,61,0.00,,,0.00,VWS V13.01,2013-06-03 15:07:00,
2013-06-03 10:12:00,66.9,51.7,30.01,East,96,3.6,5.8,58,0.00,,,0.00,VWS V13.01,2013-06-03 15:12:00,
2013-06-03 10:17:00,67.3,51.5,30.01,NNE,18,2.7,2.7,57,0.00,,,0.00,VWS V13.01,2013-06-03 15:17:00,
2013-06-03 10:22:00,68.3,53.0,30.01,NE,43,3.1,3.1,58,0.00,,,0.00,VWS V13.01,2013-06-03 15:22:00,
2013-06-03 10:27:00,68.7,52.9,30.01,SSE,152,4.0,4.9,57,0.00,,,0.00,VWS V13.01,2013-06-03 15:27:00,
2013-06-03 10:32:00,68.2,52.8,30.01,North,352,3.1,3.6,58,0.00,,,0.00,VWS V13.01,2013-06-03 15:32:00,
2013-06-03 10:37:00,68.0,52.7,30.01,South,173,2.2,5.4,58,0.00,,,0.00,VWS V13.01,2013-06-03 15:37:00,
2013-06-03 10:42:00,68.2,53.3,30.01,SSE,161,3.1,4.0,59,0.00,,,0.00,VWS V13.01,2013-06-03 15:42:00,
2013-06-03 10:47:00,68.2,52.4,30.01,NE,43,3.6,5.4,57,0.00,,,0.00,VWS V13.01,2013-06-03 15:47:00,
2013-06-03 10:52:00,68.0,53.1,30.01,South,180,5.4,5.4,59,0.00,,,0.00,VWS V13.01,2013-06-03 15:52:00,
2013-06-03 10:57:00,67.4,53.1,30.01,SSE,167,5.8,5.8,60,0.00,,,0.00,VWS V13.01,2013-06-03 15:57:00,
2013-06-03 11:02:00,67.6,52.3,29.98,NNE,19,3.1,4.9,58,0.00,,,0.00,VWS V13.01,2013-06-03 16:02:00,
2013-06-03 11:07:00,68.3,53.0,29.98,SSE,147,0.0,0.0,58,0.00,,,0.00,VWS V13.01,2013-06-03 16:07:00,
2013-06-03 11:12:00,68.3,53.9,29.98,WSW,249,4.0,4.0,60,0.00,,,0.00,VWS V13.01,2013-06-03 16:12:00,
2013-06-03 11:17:00,69.1,55.5,29.98,ESE,121,2.7,3.6,62,0.00,,,0.00,VWS V13.01,2013-06-03 16:17:00,
2013-06-03 11:22:00,69.4,53.5,29.98,SW,224,0.0,3.1,57,0.00,,,0.00,VWS V13.01,2013-06-03 16:22:00,
2013-06-03 11:27:00,69.6,54.2,29.98,South,182,6.3,6.3,58,0.00,,,0.00,VWS V13.01,2013-06-03 16:27:00,
2013-06-03 11:32:00,69.2,53.8,29.98,NE,50,4.9,5.8,58,0.00,,,0.00,VWS V13.01,2013-06-03 16:32:00,
2013-06-03 11:37:00,69.4,55.4,29.98,ESE,117,4.9,4.9,61,0.00,,,0.00,VWS V13.01,2013-06-03 16:37:00,
2013-06-03 11:42:00,70.3,54.4,29.98,SSE,150,2.2,2.7,57,0.00,,,0.00,VWS V13.01,2013-06-03 16:42:00,
2013-06-03 11:47:00,70.7,54.7,29.98,ENE,77,2.7,3.1,57,0.00,,,0.00,VWS V13.01,2013-06-03 16:47:00,
2013-06-03 11:52:00,71.2,53.7,29.98,ENE,66,6.3,6.7,54,0.00,,,0.00,VWS V13.01,2013-06-03 16:52:00,
2013-06-03 11:57:00,71.2,54.2,29.98,SE,125,4.5,4.5,55,0.00,,,0.00,VWS V13.01,2013-06-03 16:57:00,
2013-06-03 12:02:00,71.6,55.1,29.98,South,184,5.8,7.6,56,0.00,,,0.00,VWS V13.01,2013-06-03 17:02:00,
2013-06-03 12:07:00,71.2,54.2,29.98,ENE,71,7.2,7.2,55,0.00,,,0.00,VWS V13.01,2013-06-03 17:07:00,
2013-06-03 12:12:00,71.2,53.7,29.98,East,93,2.7,5.4,54,0.00,,,0.00,VWS V13.01,2013-06-03 17:12:00,
2013-06-03 12:17:00,71.8,54.2,29.98,NE,37,2.2,3.6,54,0.00,,,0.00,VWS V13.01,2013-06-03 17:17:00,
2013-06-03 12:22:00,72.7,55.6,29.98,South,190,2.7,3.1,55,0.00,,,0.00,VWS V13.01,2013-06-03 17:22:00,
2013-06-03 12:27:00,72.3,53.7,29.98,South,184,5.8,5.8,52,0.00,,,0.00,VWS V13.01,2013-06-03 17:27:00,
2013-06-03 12:32:00,71.8,53.7,29.98,West,260,2.7,2.7,53,0.00,,,0.00,VWS V13.01,2013-06-03 17:32:00,
2013-06-03 12:37:00,72.1,54.6,29.98,ENE,64,0.0,2.2,54,0.00,,,0.00,VWS V13.01,2013-06-03 17:37:00,
2013-06-03 12:42:00,72.3,53.7,29.98,SSE,159,2.7,2.7,52,0.00,,,0.00,VWS V13.01,2013-06-03 17:42:00,
2013-06-03 12:47:00,72.3,53.7,29.98,South,172,4.0,5.4,52,0.00,,,0.00,VWS V13.01,2013-06-03 17:47:00,
2013-06-03 12:52:00,72.3,53.7,29.98,SE,126,4.9,4.9,52,0.00,,,0.00,VWS V13.01,2013-06-03 17:52:00,
2013-06-03 12:57:00,72.3,53.7,29.98,South,172,2.7,2.7,52,0.00,,,0.00,VWS V13.01,2013-06-03 17:57:00,
2013-06-03 13:02:00,73.6,54.9,29.98,South,172,0.0,0.0,52,0.00,,,0.00,VWS V13.01,2013-06-03 18:02:00,
2013-06-03 13:07:00,74.3,55.5,29.98,South,171,4.0,4.0,52,0.00,,,0.00,VWS V13.01,2013-06-03 18:07:00,
2013-06-03 13:12:00,74.5,55.7,29.98,SSE,163,4.9,6.3,52,0.00,,,0.00,VWS V13.01,2013-06-03 18:12:00,
2013-06-03 13:17:00,73.9,54.7,29.95,East,83,3.1,3.1,51,0.00,,,0.00,VWS V13.01,2013-06-03 18:17:00,
2013-06-03 13:22:00,74.3,55.0,29.95,NW,322,2.7,3.1,51,0.00,,,0.00,VWS V13.01,2013-06-03 18:22:00,
2013-06-03 13:27:00,75.0,55.1,29.95,SSE,167,3.6,4.0,50,0.00,,,0.00,VWS V13.01,2013-06-03 18:27:00,
2013-06-03 13:32:00,74.3,53.3,29.95,ESE,107,0.0,2.7,48,0.00,,,0.00,VWS V13.01,2013-06-03 18:32:00,
2013-06-03 13:37:00,73.9,52.4,29.95,SSE,167,3.6,6.3,47,0.00,,,0.00,VWS V13.01,2013-06-03 18:37:00,
2013-06-03 13:42:00,73.7,52.3,29.95,SSW,197,4.0,5.8,47,0.00,,,0.00,VWS V13.01,2013-06-03 18:42:00,
2013-06-03 13:47:00,73.7,51.1,29.95,South,180,5.4,5.8,45,0.00,,,0.00,VWS V13.01,2013-06-03 18:47:00,
2013-06-03 13:52:00,74.1,53.2,29.95,SSE,168,4.0,4.0,48,0.00,,,0.00,VWS V13.01,2013-06-03 18:52:00,
2013-06-03 13:57:00,74.3,51.0,29.95,SW,226,3.6,4.0,44,0.00,,,0.00,VWS V13.01,2013-06-03 18:57:00,
2013-06-03 14:02:00,74.3,51.0,29.95,WSW,255,0.0,0.0,44,0.00,,,0.00,VWS V13.01,2013-06-03 19:02:00,
2013-06-03 14:07:00,74.6,51.9,29.95,WSW,254,2.7,2.7,45,0.00,,,0.00,VWS V13.01,2013-06-03 19:07:00,
2013-06-03 14:12:00,75.0,51.6,29.95,NNE,25,0.0,0.0,44,0.00,,,0.00,VWS V13.01,2013-06-03 19:12:00,
2013-06-03 14:17:00,76.1,52.6,29.95,SW,231,3.6,3.6,44,0.00,,,0.00,VWS V13.01,2013-06-03 19:17:00,
2013-06-03 14:22:00,75.9,53.7,29.95,SW,233,3.1,4.0,46,0.00,,,0.00,VWS V13.01,2013-06-03 19:22:00,
2013-06-03 14:27:00,75.5,53.3,29.95,SW,232,3.1,3.1,46,0.00,,,0.00,VWS V13.01,2013-06-03 19:27:00,
2013-06-03 14:32:00,75.4,52.6,29.92,WSW,257,3.6,3.6,45,0.00,,,0.00,VWS V13.01,2013-06-03 19:32:00,
2013-06-03 14:37:00,75.5,53.3,29.92,WSW,244,4.5,4.5,46,0.00,,,0.00,VWS V13.01,2013-06-03 19:37:00,
2013-06-03 14:42:00,75.7,53.5,29.92,WSW,254,2.7,2.7,46,0.00,,,0.00,VWS V13.01,2013-06-03 19:42:00,
2013-06-03 14:47:00,76.4,53.5,29.92,WNW,287,3.6,3.6,45,0.00,,,0.00,VWS V13.01,2013-06-03 19:47:00,
2013-06-03 14:52:00,77.5,55.1,29.92,WSW,251,3.6,3.6,46,0.00,,,0.00,VWS V13.01,2013-06-03 19:52:00,
2013-06-03 14:57:00,77.5,53.9,29.92,East,81,0.0,0.0,44,0.00,,,0.00,VWS V13.01,2013-06-03 19:57:00,
2013-06-03 15:02:00,77.3,53.8,29.92,SW,232,3.6,4.0,44,0.00,,,0.00,VWS V13.01,2013-06-03 20:02:00,
2013-06-03 15:07:00,76.8,53.9,29.92,WSW,248,3.6,3.6,45,0.00,,,0.00,VWS V13.01,2013-06-03 20:07:00,
2013-06-03 15:12:00,76.6,54.9,29.92,SSW,195,4.0,4.0,47,0.00,,,0.00,VWS V13.01,2013-06-03 20:12:00,
2013-06-03 15:17:00,76.6,54.3,29.92,West,280,3.1,5.4,46,0.00,,,0.00,VWS V13.01,2013-06-03 20:17:00,
2013-06-03 15:22:00,76.6,54.3,29.92,SSE,153,3.1,3.6,46,0.00,,,0.00,VWS V13.01,2013-06-03 20:22:00,
2013-06-03 15:27:00,76.4,54.2,29.92,SE,143,0.0,0.0,46,0.00,,,0.00,VWS V13.01,2013-06-03 20:27:00,
2013-06-03 15:32:00,77.5,55.7,29.92,SSE,150,4.0,4.0,47,0.00,,,0.00,VWS V13.01,2013-06-03 20:32:00,
2013-06-03 15:37:00,77.0,53.4,29.92,South,172,5.4,5.4,44,0.00,,,0.00,VWS V13.01,2013-06-03 20:37:00,
2013-06-03 15:42:00,76.4,54.7,29.92,ESE,114,2.7,4.0,47,0.00,,,0.00,VWS V13.01,2013-06-03 20:42:00,
2013-06-03 15:47:00,77.2,56.5,29.92,SW,224,2.7,2.7,49,0.00,,,0.00,VWS V13.01,2013-06-03 20:47:00,
2013-06-03 15:52:00,77.5,56.3,29.92,NW,309,3.6,3.6,48,0.00,,,0.00,VWS V13.01,2013-06-03 20:52:00,
2013-06-03 15:57:00,77.5,55.1,29.92,ESE,113,3.6,3.6,46,0.00,,,0.00,VWS V13.01,2013-06-03 20:57:00,
2013-06-03 16:02:00,77.7,55.9,29.92,South,174,4.0,5.8,47,0.00,,,0.00,VWS V13.01,2013-06-03 21:02:00,
2013-06-03 16:07:00,77.5,55.1,29.92,SSE,150,6.3,6.3,46,0.00,,,0.00,VWS V13.01,2013-06-03 21:07:00,
2013-06-03 16:12:00,77.7,54.1,29.92,East,89,2.7,2.7,44,0.00,,,0.00,VWS V13.01,2013-06-03 21:12:00,
2013-06-03 16:17:00,77.9,54.2,29.89,ENE,69,3.6,4.0,44,0.00,,,0.00,VWS V13.01,2013-06-03 21:17:00,
2013-06-03 16:22:00,77.5,53.9,29.89,ENE,61,6.3,6.3,44,0.00,,,0.00,VWS V13.01,2013-06-03 21:22:00,
2013-06-03 16:27:00,77.3,54.4,29.89,SE,131,5.4,6.3,45,0.00,,,0.00,VWS V13.01,2013-06-03 21:27:00,
2013-06-03 16:32:00,77.2,53.6,29.89,SE,134,3.1,4.9,44,0.00,,,0.00,VWS V13.01,2013-06-03 21:32:00,
2013-06-03 16:37:00,77.2,54.2,29.89,SW,231,4.9,4.9,45,0.00,,,0.00,VWS V13.01,2013-06-03 21:37:00,
2013-06-03 16:42:00,76.8,53.3,29.89,South,182,4.0,5.8,44,0.00,,,0.00,VWS V13.01,2013-06-03 21:42:00,
2013-06-03 16:47:00,77.2,54.8,29.89,SSE,156,2.7,4.0,46,0.00,,,0.00,VWS V13.01,2013-06-03 21:47:00,
2013-06-03 16:52:00,77.7,55.3,29.89,ESE,118,3.6,4.0,46,0.00,,,0.00,VWS V13.01,2013-06-03 21:52:00,
2013-06-03 16:57:00,77.9,54.8,29.89,SE,130,2.7,3.1,45,0.00,,,0.00,VWS V13.01,2013-06-03 21:57:00,
2013-06-03 17:02:00,77.9,54.8,29.89,East,96,5.8,5.8,45,0.00,,,0.00,VWS V13.01,2013-06-03 22:02:00,
2013-06-03 17:07:00,77.7,55.3,29.89,NE,54,0.0,0.0,46,0.00,,,0.00,VWS V13.01,2013-06-03 22:07:00,
2013-06-03 17:12:00,78.8,55.0,29.89,WNW,284,2.7,3.6,44,0.00,,,0.00,VWS V13.01,2013-06-03 22:12:00,
2013-06-03 17:17:00,79.3,56.2,29.89,SSE,150,4.0,5.4,45,0.00,,,0.00,VWS V13.01,2013-06-03 22:17:00,
2013-06-03 17:22:00,78.8,55.7,29.89,East,82,5.4,5.4,45,0.00,,,0.00,VWS V13.01,2013-06-03 22:22:00,
2013-06-03 17:27:00,78.1,56.8,29.89,SSE,150,2.7,4.9,48,0.00,,,0.00,VWS V13.01,2013-06-03 22:27:00,
2013-06-03 17:32:00,77.9,56.0,29.89,SE,143,4.0,6.3,47,0.00,,,0.00,VWS V13.01,2013-06-03 22:32:00,
2013-06-03 17:37:00,77.7,56.5,29.89,South,172,3.6,4.9,48,0.00,,,0.00,VWS V13.01,2013-06-03 22:37:00,
2013-06-03 17:42:00,77.5,55.1,29.89,South,178,3.6,6.3,46,0.00,,,0.00,VWS V13.01,2013-06-03 22:42:00,
2013-06-03 17:47:00,77.3,55.6,29.89,SE,135,3.6,3.6,47,0.00,,,0.00,VWS V13.01,2013-06-03 22:47:00,
2013-06-03 17:52:00,77.3,55.0,29.89,ESE,123,6.3,6.3,46,0.00,,,0.00,VWS V13.01,2013-06-03 22:52:00,
2013-06-03 17:57:00,77.2,54.2,29.89,SSW,197,6.3,6.3,45,0.00,,,0.00,VWS V13.01,2013-06-03 22:57:00,
2013-06-03 18:02:00,77.2,55.4,29.89,ESE,118,6.3,6.3,47,0.00,,,0.00,VWS V13.01,2013-06-03 23:02:00,
2013-06-03 18:07:00,77.2,54.2,29.89,ESE,114,5.4,8.3,45,0.00,,,0.00,VWS V13.01,2013-06-03 23:07:00,
2013-06-03 18:12:00,77.2,54.2,29.89,ESE,105,3.6,4.0,45,0.00,,,0.00,VWS V13.01,2013-06-03 23:12:00,
2013-06-03 18:17:00,77.2,53.6,29.89,SE,143,4.9,5.4,44,0.00,,,0.00,VWS V13.01,2013-06-03 23:17:00,
2013-06-03 18:22:00,77.2,53.6,29.89,ENE,77,3.1,4.9,44,0.00,,,0.00,VWS V13.01,2013-06-03 23:22:00,
2013-06-03 18:27:00,77.0,53.4,29.89,ESE,115,5.8,5.8,44,0.00,,,0.00,VWS V13.01,2013-06-03 23:27:00,
2013-06-03 18:32:00,76.6,53.7,29.89,SSE,159,5.8,6.3,45,0.00,,,0.00,VWS V13.01,2013-06-03 23:32:00,
2013-06-03 18:37:00,76.6,54.9,29.89,SE,129,3.6,3.6,47,0.00,,,0.00,VWS V13.01,2013-06-03 23:37:00,
2013-06-03 18:42:00,76.6,56.0,29.89,ESE,110,3.1,3.1,49,0.00,,,0.00,VWS V13.01,2013-06-03 23:42:00,
2013-06-03 18:47:00,76.6,56.0,29.89,ESE,120,3.1,6.3,49,0.00,,,0.00,VWS V13.01,2013-06-03 23:47:00,
2013-06-03 18:52:00,76.4,56.4,29.89,SE,125,2.7,3.6,50,0.00,,,0.00,VWS V13.01,2013-06-03 23:52:00,
2013-06-03 18:57:00,75.7,55.8,29.89,ESE,108,3.6,5.4,50,0.00,,,0.00,VWS V13.01,2013-06-03 23:57:00,
2013-06-03 19:02:00,75.4,56.0,29.89,East,92,3.6,3.6,51,0.00,,,0.00,VWS V13.01,2013-06-04 00:02:00,
2013-06-03 19:07:00,75.0,55.7,29.89,ENE,76,2.7,3.1,51,0.00,,,0.00,VWS V13.01,2013-06-04 00:07:00,
2013-06-03 19:12:00,74.8,56.0,29.89,East,90,3.1,5.4,52,0.00,,,0.00,VWS V13.01,2013-06-04 00:12:00,
2013-06-03 19:17:00,74.6,55.9,29.89,East,83,2.7,2.7,52,0.00,,,0.00,VWS V13.01,2013-06-04 00:17:00,
2013-06-03 19:22:00,74.6,56.4,29.89,NE,47,0.0,2.7,53,0.00,,,0.00,VWS V13.01,2013-06-04 00:22:00,
2013-06-03 19:27:00,74.6,55.9,29.89,ENE,77,4.0,4.0,52,0.00,,,0.00,VWS V13.01,2013-06-04 00:27:00,
2013-06-03 19:32:00,74.6,55.9,29.89,ESE,117,2.7,2.7,52,0.00,,,0.00,VWS V13.01,2013-06-04 00:32:00,
2013-06-03 19:37:00,74.6,55.9,29.89,East,80,3.6,4.0,52,0.00,,,0.00,VWS V13.01,2013-06-04 00:37:00,
2013-06-03 19:42:00,74.5,55.7,29.89,East,81,4.0,4.0,52,0.00,,,0.00,VWS V13.01,2013-06-04 00:42:00,
2013-06-03 19:47:00,74.3,55.5,29.89,ESE,110,3.6,4.0,52,0.00,,,0.00,VWS V13.01,2013-06-04 00:47:00,
2013-06-03 19:52:00,74.1,55.4,29.89,ENE,70,3.6,3.6,52,0.00,,,0.00,VWS V13.01,2013-06-04 00:52:00,
2013-06-03 19:57:00,73.9,55.2,29.89,ENE,57,3.1,3.1,52,0.00,,,0.00,VWS V13.01,2013-06-04 00:57:00,
2013-06-03 20:02:00,73.6,54.9,29.89,East,85,4.9,6.3,52,0.00,,,0.00,VWS V13.01,2013-06-04 01:02:00,
2013-06-03 20:07:00,73.4,54.7,29.89,ENE,76,3.6,5.4,52,0.00,,,0.00,VWS V13.01,2013-06-04 01:07:00,
2013-06-03 20:12:00,73.2,54.5,29.89,ENE,63,0.0,0.0,52,0.00,,,0.00,VWS V13.01,2013-06-04 01:12:00,
2013-06-03 20:17:00,72.8,54.7,29.89,ENE,57,0.0,0.0,53,0.00,,,0.00,VWS V13.01,2013-06-04 01:17:00,
2013-06-03 20:22:00,72.7,54.6,29.89,East,89,3.1,3.1,53,0.00,,,0.00,VWS V13.01,2013-06-04 01:22:00,
2013-06-03 20:27:00,72.3,54.2,29.89,East,94,3.1,3.1,53,0.00,,,0.00,VWS V13.01,2013-06-04 01:27:00,
2013-06-03 20:32:00,71.9,53.9,29.89,East,84,0.0,3.1,53,0.00,,,0.00,VWS V13.01,2013-06-04 01:32:00,
2013-06-03 20:37:00,71.8,53.7,29.89,East,85,4.0,4.0,53,0.00,,,0.00,VWS V13.01,2013-06-04 01:37:00,
2013-06-03 20:42:00,71.4,53.9,29.89,ENE,67,0.0,0.0,54,0.00,,,0.00,VWS V13.01,2013-06-04 01:42:00,
2013-06-03 20:47:00,71.2,53.7,29.89,ENE,67,0.0,0.0,54,0.00,,,0.00,VWS V13.01,2013-06-04 01:47:00,
2013-06-03 20:52:00,71.0,54.1,29.89,East,80,2.7,3.1,55,0.00,,,0.00,VWS V13.01,2013-06-04 01:52:00,
2013-06-03 20:57:00,70.7,53.7,29.89,East,89,0.0,0.0,55,0.00,,,0.00,VWS V13.01,2013-06-04 01:57:00,
2013-06-03 21:02:00,70.3,53.9,29.89,ENE,76,0.0,0.0,56,0.00,,,0.00,VWS V13.01,2013-06-04 02:02:00,
2013-06-03 21:07:00,70.1,54.2,29.89,NE,51,0.0,0.0,57,0.00,,,0.00,VWS V13.01,2013-06-04 02:07:00,
2013-06-03 21:12:00,70.0,54.0,29.89,NE,51,0.0,0.0,57,0.00,,,0.00,VWS V13.01,2013-06-04 02:12:00,
2013-06-03 21:17:00,69.8,55.3,29.89,NE,51,0.0,0.0,60,0.00,,,0.00,VWS V13.01,2013-06-04 02:17:00,
2013-06-03 21:22:00,69.4,55.8,29.89,NE,51,0.0,0.0,62,0.00,,,0.00,VWS V13.01,2013-06-04 02:22:00,
2013-06-03 21:27:00,68.9,55.8,29.89,NE,51,0.0,0.0,63,0.00,,,0.00,VWS V13.01,2013-06-04 02:27:00,
2013-06-03 21:32:00,68.5,55.9,29.89,NE,51,0.0,0.0,64,0.00,,,0.00,VWS V13.01,2013-06-04 02:32:00,
2013-06-03 21:37:00,67.8,56.5,29.89,NE,51,0.0,0.0,67,0.00,,,0.00,VWS V13.01,2013-06-04 02:37:00,
2013-06-03 21:42:00,67.3,56.3,29.89,NE,51,0.0,0.0,68,0.00,,,0.00,VWS V13.01,2013-06-04 02:42:00,
2013-06-03 21:47:00,66.7,56.6,29.89,NE,51,0.0,0.0,70,0.00,,,0.00,VWS V13.01,2013-06-04 02:47:00,
2013-06-03 21:52:00,66.2,56.9,29.89,NNE,21,0.0,0.0,72,0.00,,,0.00,VWS V13.01,2013-06-04 02:52:00,
2013-06-03 21:57:00,65.8,57.3,29.89,NNE,21,0.0,0.0,74,0.00,,,0.00,VWS V13.01,2013-06-04 02:57:00,
2013-06-03 22:02:00,65.6,57.5,29.89,NNE,21,0.0,0.0,75,0.00,,,0.00,VWS V13.01,2013-06-04 03:02:00,
2013-06-03 22:07:00,65.3,57.5,29.89,NNE,21,0.0,0.0,76,0.00,,,0.00,VWS V13.01,2013-06-04 03:07:00,
2013-06-03 22:12:00,65.1,57.0,29.89,North,9,0.0,2.2,75,0.00,,,0.00,VWS V13.01,2013-06-04 03:12:00,
2013-06-03 22:17:00,64.9,56.8,29.92,North,9,0.0,2.2,75,0.00,,,0.00,VWS V13.01,2013-06-04 03:17:00,
2013-06-03 22:22:00,64.9,57.2,29.92,North,9,0.0,0.0,76,0.00,,,0.00,VWS V13.01,2013-06-04 03:22:00,
2013-06-03 22:27:00,64.7,57.0,29.92,North,9,0.0,0.0,76,0.00,,,0.00,VWS V13.01,2013-06-04 03:27:00,
2013-06-03 22:32:00,64.4,57.0,29.92,NNE,12,0.0,0.0,77,0.00,,,0.00,VWS V13.01,2013-06-04 03:32:00,
2013-06-03 22:37:00,64.4,57.4,29.92,NNE,31,0.0,0.0,78,0.00,,,0.00,VWS V13.01,2013-06-04 03:37:00,
2013-06-03 22:42:00,64.0,57.0,29.92,NNE,31,0.0,0.0,78,0.00,,,0.00,VWS V13.01,2013-06-04 03:42:00,
2013-06-03 22:47:00,63.7,57.0,29.92,NNE,31,0.0,0.0,79,0.00,,,0.00,VWS V13.01,2013-06-04 03:47:00,
2013-06-03 22:52:00,63.3,58.1,29.92,NNE,31,0.0,0.0,83,0.00,,,0.00,VWS V13.01,2013-06-04 03:52:00,
2013-06-03 22:57:00,63.1,57.9,29.92,NNE,31,0.0,0.0,83,0.00,,,0.00,VWS V13.01,2013-06-04 03:57:00,
2013-06-03 23:01:00,63.1,58.2,29.92,NNE,31,0.0,0.0,84,0.00,,,0.00,VWS V13.01,2013-06-04 04:01:00,
2013-06-03 23:06:00,62.9,58.4,29.92,NNE,31,0.0,0.0,85,0.00,,,0.00,VWS V13.01,2013-06-04 04:06:00,
2013-06-03 23:11:00,62.8,57.9,29.92,NNE,31,0.0,0.0,84,0.00,,,0.00,VWS V13.01,2013-06-04 04:11:00,
2013-06-03 23:16:00,62.8,57.9,29.92,NNE,31,0.0,0.0,84,0.00,,,0.00,VWS V13.01,2013-06-04 04:16:00,
2013-06-03 23:21:00,62.6,58.0,29.92,NNE,31,0.0,0.0,85,0.00,,,0.00,VWS V13.01,2013-06-04 04:21:00,
2013-06-03 23:26:00,62.4,57.8,29.92,NNE,31,0.0,0.0,85,0.00,,,0.00,VWS V13.01,2013-06-04 04:26:00,
2013-06-03 23:31:00,62.4,58.2,29.92,NNE,31,0.0,0.0,86,0.00,,,0.00,VWS V13.01,2013-06-04 04:31:00,
2013-06-03 23:36:00,62.4,57.8,29.92,North,360,0.0,0.0,85,0.00,,,0.00,VWS V13.01,2013-06-04 04:36:00,
2013-06-03 23:41:00,62.4,57.5,29.92,North,360,0.0,0.0,84,0.00,,,0.00,VWS V13.01,2013-06-04 04:41:00,
2013-06-03 23:46:00,62.4,57.8,29.95,North,360,0.0,0.0,85,0.00,,,0.00,VWS V13.01,2013-06-04 04:46:00,
2013-06-03 23:51:00,62.2,57.7,29.95,North,360,0.0,0.0,85,0.00,,,0.00,VWS V13.01,2013-06-04 04:51:00,
2013-06-03 23:56:00,62.2,58.0,29.95,NE,40,0.0,0.0,86,0.00,,,0.00,VWS V13.01,2013-06-04 04:56:00,